Time;durP1;ratioP1;P1;durP2;ratioP2;P2;SDS_P1;SDS_P2;PMS_P1;PMS_P2;Temp;Humidity;BMP_temperature;BMP_pressure;BME280_temperature;BME280_humidity;BME280_pressure;Samples;Min_cycle;Max_cycle;Signal;HPM_P1;HPM_P2
2022/02/19 00:00:09;;;;;;;12.88;2.38;;;9.30;97.80;;;;;;5115187;28;20076;-62
2022/02/19 00:02:35;;;;;;;6.47;1.73;;;9.30;97.90;;;;;;5096854;28;20050;-61
2022/02/19 00:05:01;;;;;;;6.88;1.70;;;9.30;97.90;;;;;;5115020;28;20023;-62
2022/02/19 00:07:27;;;;;;;10.17;2.40;;;9.30;98.20;;;;;;5095743;28;20034;-62
2022/02/19 00:09:52;;;;;;;7.37;1.87;;;9.20;98.50;;;;;;5114626;28;20261;-61
2022/02/19 00:12:18;;;;;;;11.03;1.93;;;9.20;98.90;;;;;;5114572;28;20077;-61
2022/02/19 00:14:44;;;;;;;10.17;2.03;;;9.20;99.10;;;;;;5114472;28;20059;-62
2022/02/19 00:17:10;;;;;;;7.05;1.70;;;9.20;99.60;;;;;;5096313;28;20538;-61
2022/02/19 00:19:35;;;;;;;10.13;1.43;;;9.20;99.60;;;;;;5114672;28;20123;-61
2022/02/19 00:22:01;;;;;;;6.93;1.60;;;9.10;99.50;;;;;;5114690;28;20045;-62
2022/02/19 00:24:27;;;;;;;6.93;1.63;;;9.20;99.30;;;;;;5114838;28;20028;-63
2022/02/19 00:26:54;;;;;;;9.10;1.63;;;9.20;99.10;;;;;;5114476;28;20581;-63
2022/02/19 00:29:20;;;;;;;19.85;2.88;;;9.10;99.20;;;;;;5095977;28;20110;-61
2022/02/19 00:31:45;;;;;;;8.68;2.35;;;9.10;99.20;;;;;;5114599;28;20048;-61
2022/02/19 00:34:11;;;;;;;8.67;1.40;;;9.10;99.10;;;;;;5114462;28;20099;-59
2022/02/19 00:36:37;;;;;;;11.93;2.00;;;9.10;99.20;;;;;;5114405;28;20034;-61
2022/02/19 00:39:04;;;;;;;14.27;1.60;;;9.10;99.40;;;;;;5114165;28;20023;-60
2022/02/19 00:41:30;;;;;;;10.63;1.73;;;9.10;99.40;;;;;;5113972;28;20034;-60
2022/02/19 00:43:57;;;;;;;14.00;1.55;;;9.00;99.00;;;;;;5113811;28;20027;-62
2022/02/19 00:46:24;;;;;;;10.25;1.63;;;9.00;98.90;;;;;;5113957;28;20019;-61
2022/02/19 00:48:49;;;;;;;;;;;9.00;99.30;;;;;;5096200;28;20024;-60
2022/02/19 00:51:15;;;;;;;13.60;1.83;;;9.00;98.50;;;;;;5113859;28;19903;-61
2022/02/19 00:53:41;;;;;;;11.63;1.63;;;9.00;98.60;;;;;;5095520;28;20027;-61
2022/02/19 00:56:09;;;;;;;12.20;1.73;;;8.90;98.70;;;;;;5113821;28;20080;-63
2022/02/19 00:58:38;;;;;;;15.48;2.42;;;8.90;98.50;;;;;;5113771;28;20044;-61
2022/02/19 01:01:04;;;;;;;11.95;1.67;;;8.90;98.50;;;;;;5113721;28;20023;-62
2022/02/19 01:03:31;;;;;;;;;;;8.90;98.10;;;;;;5113968;28;20027;-61
2022/02/19 01:05:57;;;;;;;13.85;1.70;;;8.80;98.20;;;;;;5114040;28;19957;-62
2022/02/19 01:08:23;;;;;;;14.57;3.03;;;8.80;98.20;;;;;;5113698;28;20023;-62
2022/02/19 01:10:49;;;;;;;8.23;1.40;;;8.80;98.40;;;;;;5113611;28;20035;-62
2022/02/19 01:13:14;;;;;;;6.60;1.20;;;8.80;98.20;;;;;;5113665;28;20098;-60
2022/02/19 01:15:42;;;;;;;6.77;1.67;;;8.70;97.80;;;;;;5113812;28;20020;-62
2022/02/19 01:18:08;;;;;;;16.48;2.65;;;8.70;97.30;;;;;;5115953;28;20016;-64
2022/02/19 01:20:34;;;;;;;;;;;8.70;96.80;;;;;;5121118;28;20032;-62
2022/02/19 01:23:00;;;;;;;8.57;1.40;;;8.70;97.10;;;;;;5120953;28;20262;-62
2022/02/19 01:25:25;;;;;;;17.05;1.88;;;8.70;95.80;;;;;;5120405;28;20027;-62
2022/02/19 01:27:51;;;;;;;8.70;1.50;;;8.60;95.90;;;;;;5120440;28;20027;-61
2022/02/19 01:30:17;;;;;;;10.68;1.80;;;8.60;95.80;;;;;;5120919;28;20099;-63
2022/02/19 01:32:43;;;;;;;12.27;2.17;;;8.60;95.10;;;;;;5120483;28;20340;-61
2022/02/19 01:35:08;;;;;;;11.30;1.77;;;8.50;95.10;;;;;;5102330;28;20065;-62
2022/02/19 01:37:34;;;;;;;8.07;1.77;;;8.50;95.50;;;;;;5101951;28;20118;-62
2022/02/19 01:40:00;;;;;;;14.90;1.83;;;8.50;95.00;;;;;;5120210;28;20124;-62
2022/02/19 01:42:27;;;;;;;9.90;1.52;;;8.40;94.80;;;;;;5120269;28;20028;-61
2022/02/19 01:44:53;;;;;;;14.60;1.92;;;8.40;94.70;;;;;;5101826;28;20556;-59
2022/02/19 01:47:19;;;;;;;9.98;1.75;;;8.40;94.70;;;;;;5120129;28;20529;-60
2022/02/19 01:49:45;;;;;;;11.35;1.90;;;8.40;94.80;;;;;;5120678;28;20028;-62
2022/02/19 01:52:12;;;;;;;14.52;1.73;;;8.40;94.90;;;;;;5120924;28;20016;-63
2022/02/19 01:54:39;;;;;;;12.32;2.00;;;8.40;94.90;;;;;;5104007;28;20115;-63
2022/02/19 01:57:05;;;;;;;9.05;1.50;;;8.30;95.10;;;;;;5121604;28;20039;-61
2022/02/19 01:59:33;;;;;;;13.15;2.08;;;8.30;95.20;;;;;;5120388;28;20107;-60
2022/02/19 02:01:59;;;;;;;8.25;1.73;;;8.30;95.20;;;;;;5120062;28;20038;-60
2022/02/19 02:04:25;;;;;;;9.97;2.30;;;8.20;95.50;;;;;;5120118;28;20106;-62
2022/02/19 02:06:50;;;;;;;12.10;1.47;;;8.20;95.60;;;;;;5120286;28;20124;-62
2022/02/19 02:09:17;;;;;;;9.40;1.75;;;8.20;95.40;;;;;;5120543;28;20423;-62
2022/02/19 02:11:44;;;;;;;;;;;8.20;95.90;;;;;;5120985;28;20383;-62
2022/02/19 02:14:10;;;;;;;12.70;1.35;;;8.20;96.00;;;;;;5102368;28;20020;-59
2022/02/19 02:16:37;;;;;;;9.47;1.57;;;8.10;96.00;;;;;;5120851;28;20047;-62
2022/02/19 02:19:03;;;;;;;14.63;2.10;;;8.10;96.10;;;;;;5102565;28;20764;-62
2022/02/19 02:21:29;;;;;;;9.57;1.77;;;8.20;96.00;;;;;;5121165;28;20040;-62
2022/02/19 02:23:55;;;;;;;8.70;1.70;;;8.10;96.20;;;;;;5121336;28;20032;-63
2022/02/19 02:26:23;;;;;;;8.80;1.88;;;8.10;96.10;;;;;;5121396;28;20391;-61
2022/02/19 02:28:48;;;;;;;10.07;1.52;;;8.10;96.20;;;;;;5102848;28;20035;-61
2022/02/19 02:31:14;;;;;;;9.53;2.13;;;8.10;96.10;;;;;;5117507;28;20019;-62
2022/02/19 02:33:42;;;;;;;9.30;1.20;;;8.10;96.20;;;;;;5117600;28;20091;-62
2022/02/19 02:36:08;;;;;;;11.68;2.45;;;8.00;96.30;;;;;;5116959;28;20034;-61
2022/02/19 02:38:33;;;;;;;15.00;3.03;;;8.00;96.50;;;;;;5117871;28;20028;-62
2022/02/19 02:40:59;;;;;;;9.90;1.83;;;8.00;97.00;;;;;;5098642;28;20032;-62
2022/02/19 02:43:26;;;;;;;9.10;1.73;;;7.90;96.70;;;;;;5117194;28;20099;-62
2022/02/19 02:45:51;;;;;;;10.50;1.83;;;7.90;96.80;;;;;;5116932;28;20058;-62
2022/02/19 02:48:17;;;;;;;14.37;2.47;;;7.90;96.70;;;;;;5117454;28;20047;-63
2022/02/19 02:50:43;;;;;;;16.60;2.77;;;7.90;96.80;;;;;;5117590;28;20375;-61
2022/02/19 02:53:09;;;;;;;8.10;1.70;;;7.90;97.00;;;;;;5117624;28;20289;-62
2022/02/19 02:55:34;;;;;;;11.90;2.47;;;7.80;97.10;;;;;;5116562;28;20352;-61
2022/02/19 02:58:00;;;;;;;11.50;1.80;;;7.80;97.00;;;;;;5116450;28;20055;-63
2022/02/19 03:00:25;;;;;;;11.27;1.67;;;7.70;96.90;;;;;;5116673;28;20417;-62
2022/02/19 03:02:51;;;;;;;9.10;1.83;;;7.70;97.20;;;;;;5116179;28;20031;-62
2022/02/19 03:05:17;;;;;;;5.80;1.40;;;7.70;97.20;;;;;;5116458;28;20042;-62
2022/02/19 03:07:43;;;;;;;16.77;3.13;;;7.70;97.20;;;;;;5116296;28;20095;-62
2022/02/19 03:10:09;;;;;;;10.52;1.75;;;7.60;97.70;;;;;;5098046;28;20391;-61
2022/02/19 03:12:35;;;;;;;11.43;2.42;;;7.60;97.50;;;;;;5117619;28;20023;-60
2022/02/19 03:15:02;;;;;;;8.82;1.45;;;7.50;97.80;;;;;;5118265;28;20540;-62
2022/02/19 03:17:27;;;;;;;12.40;1.63;;;7.50;97.50;;;;;;5101386;28;20084;-62
2022/02/19 03:19:53;;;;;;;14.83;3.60;;;7.40;97.40;;;;;;5121465;28;20032;-62
2022/02/19 03:22:19;;;;;;;11.63;1.70;;;7.40;97.70;;;;;;5120069;28;20024;-62
2022/02/19 03:24:44;;;;;;;10.07;1.60;;;7.40;97.90;;;;;;5119620;28;20301;-62
2022/02/19 03:27:10;;;;;;;11.57;1.70;;;7.40;97.80;;;;;;5118988;28;20425;-61
2022/02/19 03:29:35;;;;;;;11.40;2.40;;;7.40;98.00;;;;;;5098069;28;20463;-61
2022/02/19 03:32:05;;;;;;;13.97;2.13;;;7.30;97.90;;;;;;5117227;28;20103;-61
2022/02/19 03:34:31;;;;;;;11.77;1.75;;;7.30;98.00;;;;;;5117659;28;20399;-61
2022/02/19 03:36:57;;;;;;;14.82;1.55;;;7.30;98.30;;;;;;5123024;28;20024;-63
2022/02/19 03:39:22;;;;;;;15.43;1.83;;;7.30;98.00;;;;;;5122001;28;20031;-63
2022/02/19 03:41:48;;;;;;;8.83;2.20;;;7.20;98.10;;;;;;5119970;28;20031;-62
2022/02/19 03:44:14;;;;;;;9.70;1.60;;;7.30;98.20;;;;;;5120486;28;20346;-63
2022/02/19 03:46:39;;;;;;;9.80;1.63;;;7.20;98.10;;;;;;5118581;28;20020;-61
2022/02/19 03:49:06;;;;;;;9.87;1.50;;;7.20;98.10;;;;;;5115884;28;20532;-62
2022/02/19 03:51:32;;;;;;;10.90;3.13;;;7.30;98.30;;;;;;5115433;28;20498;-62
2022/02/19 03:53:58;;;;;;;12.98;2.20;;;7.20;98.50;;;;;;5115121;28;20059;-61
2022/02/19 03:56:24;;;;;;;11.10;1.73;;;7.20;98.70;;;;;;5096767;28;20074;-62
2022/02/19 03:58:49;;;;;;;14.37;1.80;;;7.10;98.80;;;;;;5114808;28;20500;-60
2022/02/19 04:01:16;;;;;;;12.47;1.27;;;7.10;99.00;;;;;;5114685;28;20626;-60
2022/02/19 04:03:42;;;;;;;;;;;7.10;98.90;;;;;;5115197;28;20042;-62
2022/02/19 04:06:07;;;;;;;11.95;1.80;;;7.00;99.10;;;;;;5096416;28;19904;-62
2022/02/19 04:08:33;;;;;;;13.33;2.67;;;7.00;99.30;;;;;;5114861;28;20020;-62
2022/02/19 04:10:58;;;;;;;17.87;3.20;;;7.00;99.50;;;;;;5114657;28;20023;-62
2022/02/19 04:13:24;;;;;;;17.80;5.53;;;7.00;99.50;;;;;;5114651;28;20016;-62
2022/02/19 04:15:50;;;;;;;9.43;2.13;;;7.00;99.60;;;;;;5115391;28;20316;-61
2022/02/19 04:18:15;;;;;;;10.90;1.40;;;7.00;99.40;;;;;;5096233;28;20027;-62
2022/02/19 04:20:41;;;;;;;10.02;1.58;;;7.00;99.30;;;;;;5114254;28;20028;-62
2022/02/19 04:23:07;;;;;;;11.23;1.67;;;7.00;99.40;;;;;;5114306;28;20495;-62
2022/02/19 04:25:33;;;;;;;13.57;1.77;;;7.00;99.50;;;;;;5114276;28;20063;-61
2022/02/19 04:28:07;;;;;;;15.15;2.60;;;7.00;99.50;;;;;;5114513;28;20031;-60
2022/02/19 04:30:33;;;;;;;9.02;2.05;;;7.00;99.40;;;;;;5114191;28;20064;-61
2022/02/19 04:32:59;;;;;;;10.23;1.88;;;7.00;99.20;;;;;;5095796;28;20387;-62
2022/02/19 04:35:26;;;;;;;9.47;1.50;;;6.90;99.20;;;;;;5114099;28;20031;-62
2022/02/19 04:37:51;;;;;;;10.32;1.63;;;6.90;99.30;;;;;;5114214;28;20020;-62
2022/02/19 04:40:17;;;;;;;6.37;1.50;;;6.80;99.40;;;;;;5114170;28;20027;-61
2022/02/19 04:42:43;;;;;;;15.67;2.07;;;6.80;99.60;;;;;;5114293;28;20152;-62
2022/02/19 04:45:10;;;;;;;13.37;1.80;;;6.80;99.80;;;;;;5113964;28;20285;-59
2022/02/19 04:47:36;;;;;;;8.82;1.65;;;6.70;99.90;;;;;;5113986;28;20472;-60
2022/02/19 04:50:04;;;;;;;7.95;2.13;;;6.70;99.70;;;;;;5113804;28;20069;-62
2022/02/19 04:52:30;;;;;;;9.77;1.60;;;6.70;99.70;;;;;;5113893;28;20480;-62
2022/02/19 04:54:55;;;;;;;12.80;4.60;;;6.70;99.70;;;;;;5095764;28;20028;-61
2022/02/19 04:57:21;;;;;;;14.73;1.80;;;6.70;99.90;;;;;;5114080;28;20081;-62
2022/02/19 04:59:47;;;;;;;12.63;1.63;;;6.70;99.80;;;;;;5113828;28;20046;-62
2022/02/19 05:02:12;;;;;;;8.97;1.90;;;6.70;99.90;;;;;;5114228;28;20024;-62
2022/02/19 05:04:38;;;;;;;13.50;2.30;;;6.60;99.90;;;;;;5114021;28;20031;-63
2022/02/19 05:07:04;;;;;;;8.93;1.60;;;6.60;99.90;;;;;;5115274;28;20099;-62
2022/02/19 05:09:29;;;;;;;11.70;1.75;;;6.60;99.90;;;;;;5114542;28;20511;-60
2022/02/19 05:11:55;;;;;;;9.40;1.60;;;6.60;99.90;;;;;;5113710;28;20027;-61
2022/02/19 05:14:21;;;;;;;11.67;1.97;;;6.60;99.90;;;;;;5113775;28;20490;-61
2022/02/19 05:16:47;;;;;;;8.27;1.90;;;6.60;99.90;;;;;;5113848;28;20019;-61
2022/02/19 05:19:12;;;;;;;12.47;2.27;;;6.50;99.90;;;;;;5095350;28;20039;-61
2022/02/19 05:24:06;;;;;;;9.82;1.58;;;6.50;99.90;;;;;;5051780;28;20049;-67
2022/02/19 05:26:31;;;;;;;9.73;2.00;;;6.50;99.90;;;;;;5053614;28;20454;-68
2022/02/19 05:28:57;;;;;;;11.50;1.60;;;6.50;99.90;;;;;;5051900;28;20025;-68
2022/02/19 05:31:23;;;;;;;13.50;2.70;;;6.50;99.90;;;;;;5053266;28;20021;-67
2022/02/19 05:33:48;;;;;;;8.07;1.27;;;6.40;99.90;;;;;;5069778;28;20029;-67
2022/02/19 05:36:14;;;;;;;8.77;1.93;;;6.40;99.90;;;;;;5073345;28;20031;-67
2022/02/19 05:38:40;;;;;;;8.63;1.97;;;6.40;99.90;;;;;;5073670;28;20385;-67
2022/02/19 05:41:05;;;;;;;8.40;1.37;;;6.40;99.90;;;;;;5073457;28;20025;-66
2022/02/19 05:43:31;;;;;;;10.33;1.33;;;6.30;99.90;;;;;;5072895;28;20032;-67
2022/02/19 05:45:56;;;;;;;8.13;1.80;;;6.30;99.90;;;;;;5072837;28;20042;-67
2022/02/19 05:48:22;;;;;;;14.23;2.00;;;6.40;99.90;;;;;;5072829;28;20054;-67
2022/02/19 05:50:49;;;;;;;10.23;1.67;;;6.40;99.90;;;;;;5072982;28;20381;-68
2022/02/19 05:53:16;;;;;;;8.10;1.40;;;6.30;99.90;;;;;;5071546;28;20028;-68
2022/02/19 05:55:42;;;;;;;9.82;1.40;;;6.40;99.90;;;;;;5072859;28;20033;-67
2022/02/19 05:58:08;;;;;;;8.82;1.60;;;6.40;99.90;;;;;;5071480;28;20035;-68
2022/02/19 06:00:34;;;;;;;9.40;1.60;;;6.30;99.90;;;;;;5072793;28;20024;-67
2022/02/19 06:02:59;;;;;;;17.45;1.98;;;6.30;99.90;;;;;;5072634;28;20035;-68
2022/02/19 06:05:25;;;;;;;11.23;1.60;;;6.30;99.90;;;;;;5072643;28;20025;-67
2022/02/19 06:07:51;;;;;;;12.15;1.90;;;6.30;99.90;;;;;;5075374;28;20031;-68
2022/02/19 06:10:16;;;;;;;8.77;1.70;;;6.30;99.90;;;;;;5075189;28;20025;-68
2022/02/19 06:12:42;;;;;;;18.63;2.27;;;6.30;99.90;;;;;;5076752;28;20108;-68
2022/02/19 06:15:08;;;;;;;17.60;2.03;;;6.20;99.90;;;;;;5076380;28;20074;-68
2022/02/19 06:17:34;;;;;;;6.88;1.50;;;6.20;99.90;;;;;;5075003;28;20025;-68
2022/02/19 06:20:00;;;;;;;6.17;1.53;;;6.10;99.90;;;;;;5076229;28;20044;-68
2022/02/19 06:22:25;;;;;;;10.70;1.90;;;6.10;99.90;;;;;;5076471;28;20063;-68
2022/02/19 06:24:51;;;;;;;12.73;1.90;;;6.10;99.90;;;;;;5076226;28;20503;-67
2022/02/19 06:27:17;;;;;;;7.35;1.10;;;6.10;99.90;;;;;;5076267;28;20021;-68
2022/02/19 06:29:43;;;;;;;7.55;2.13;;;6.10;99.90;;;;;;5074979;28;20043;-67
2022/02/19 06:32:09;;;;;;;7.60;1.37;;;6.00;99.90;;;;;;5074723;28;20081;-68
2022/02/19 06:34:35;;;;;;;9.38;1.38;;;6.00;99.90;;;;;;5076075;28;20431;-67
2022/02/19 06:37:00;;;;;;;13.90;1.65;;;6.00;99.90;;;;;;5074672;28;20090;-67
2022/02/19 06:39:26;;;;;;;11.63;2.23;;;6.00;99.90;;;;;;5076262;28;20021;-68
2022/02/19 06:41:55;;;;;;;11.87;2.53;;;6.00;99.90;;;;;;5074572;28;20034;-67
2022/02/19 06:44:21;;;;;;;7.78;1.45;;;6.00;99.90;;;;;;5074459;28;20834;-67
2022/02/19 06:46:46;;;;;;;12.73;1.90;;;6.00;99.90;;;;;;5075772;28;20194;-66
2022/02/19 06:49:12;;;;;;;7.78;1.27;;;6.00;99.90;;;;;;5075864;28;20496;-66
2022/02/19 06:51:38;;;;;;;7.93;1.30;;;6.00;99.90;;;;;;5075521;28;20032;-65
2022/02/19 06:54:04;;;;;;;10.60;2.00;;;6.00;99.90;;;;;;5074391;28;20820;-67
2022/02/19 06:56:30;;;;;;;5.88;1.40;;;6.00;99.90;;;;;;5075646;28;20028;-67
2022/02/19 06:58:59;;;;;;;9.63;1.95;;;6.00;99.90;;;;;;5075697;28;20025;-67
2022/02/19 07:01:27;;;;;;;9.35;1.50;;;6.00;99.90;;;;;;5075412;28;20021;-68
2022/02/19 07:03:54;;;;;;;12.20;1.85;;;5.90;99.90;;;;;;5075389;28;20024;-67
2022/02/19 07:06:20;;;;;;;8.60;2.08;;;5.90;99.90;;;;;;5074062;28;20054;-67
2022/02/19 07:08:47;;;;;;;13.65;1.90;;;6.00;99.90;;;;;;5075228;28;20031;-67
2022/02/19 07:11:12;;;;;;;12.80;1.67;;;6.10;99.90;;;;;;5075154;28;20107;-67
2022/02/19 07:13:39;;;;;;;13.18;1.90;;;6.00;99.90;;;;;;5074994;28;20044;-67
2022/02/19 07:16:05;;;;;;;9.75;1.70;;;6.00;99.90;;;;;;5073216;28;20028;-68
2022/02/19 07:18:31;;;;;;;7.82;1.67;;;6.00;99.90;;;;;;5075381;28;20056;-67
2022/02/19 07:20:57;;;;;;;5.80;1.38;;;6.00;99.90;;;;;;5075138;28;20059;-68
2022/02/19 07:23:23;;;;;;;10.73;2.25;;;6.00;99.90;;;;;;5073980;28;20544;-67
2022/02/19 07:25:48;;;;;;;5.15;1.25;;;6.00;99.90;;;;;;5075044;28;20024;-67
2022/02/19 07:28:14;;;;;;;8.90;1.90;;;6.00;99.90;;;;;;5073855;28;20056;-67
2022/02/19 07:30:40;;;;;;;5.40;1.90;;;6.00;99.90;;;;;;5075163;28;20039;-67
2022/02/19 07:33:07;;;;;;;13.07;2.67;;;6.00;99.90;;;;;;5073932;28;20025;-67
2022/02/19 07:35:33;;;;;;;12.10;2.15;;;6.00;99.90;;;;;;5073832;28;20029;-66
2022/02/19 07:37:58;;;;;;;11.82;1.80;;;6.00;99.90;;;;;;5073414;28;20069;-67
2022/02/19 07:40:24;;;;;;;13.88;1.95;;;6.00;99.90;;;;;;5073609;28;20032;-66
2022/02/19 07:42:50;;;;;;;7.15;2.03;;;6.00;99.90;;;;;;5074993;28;20024;-67
2022/02/19 07:45:16;;;;;;;12.88;2.17;;;6.10;99.90;;;;;;5075101;28;20086;-69
2022/02/19 07:47:41;;;;;;;19.33;1.80;;;6.10;99.90;;;;;;5074861;28;20033;-69
2022/02/19 07:58:26;;;;;;;11.38;1.52;;;6.20;99.90;;;;;;5074952;28;20040;-70
2022/02/19 08:01:01;;;;;;;12.55;1.85;;;6.30;99.90;;;;;;5073974;28;20039;-68
2022/02/19 08:03:28;;;;;;;14.80;2.15;;;6.30;99.90;;;;;;5075677;28;20035;-68
2022/02/19 08:05:55;;;;;;;7.47;1.45;;;6.30;99.90;;;;;;5074629;28;20056;-69
2022/02/19 08:08:21;;;;;;;;;;;6.30;99.90;;;;;;5074355;28;20020;-69
2022/02/19 08:10:47;;;;;;;11.77;2.33;;;6.40;99.90;;;;;;5072879;28;19923;-68
2022/02/19 08:13:18;;;;;;;12.50;1.90;;;6.40;99.90;;;;;;5074331;28;20016;-69
2022/02/19 08:15:45;;;;;;;8.95;2.15;;;6.40;99.90;;;;;;5072858;28;20020;-69
2022/02/19 08:18:12;;;;;;;10.85;2.10;;;6.50;99.90;;;;;;5074393;28;20025;-72
2022/02/19 08:20:43;;;;;;;11.95;2.25;;;6.50;99.90;;;;;;5073085;28;20056;-69
2022/02/19 08:23:10;;;;;;;9.63;1.65;;;6.50;99.90;;;;;;5074101;28;20048;-69
2022/02/19 08:25:36;;;;;;;6.38;1.40;;;6.50;99.90;;;;;;5075388;28;20599;-72
2022/02/19 08:28:05;;;;;;;12.02;2.00;;;6.50;99.90;;;;;;5074436;28;20020;-69
2022/02/19 08:30:35;;;;;;;10.73;1.85;;;6.50;99.90;;;;;;5072921;28;20489;-67
2022/02/19 08:33:01;;;;;;;8.82;2.30;;;6.60;99.90;;;;;;5072251;28;20062;-68
2022/02/19 08:35:27;;;;;;;16.88;2.92;;;6.60;99.90;;;;;;5073711;28;20029;-68
2022/02/19 08:37:52;;;;;;;8.68;1.58;;;6.60;99.90;;;;;;5072449;28;20036;-67
2022/02/19 08:40:18;;;;;;;9.87;2.00;;;6.70;99.90;;;;;;5073610;28;20028;-70
2022/02/19 08:42:44;;;;;;;10.07;2.10;;;6.70;99.90;;;;;;5073794;28;20560;-68
2022/02/19 08:45:11;;;;;;;15.45;1.83;;;6.70;99.90;;;;;;5073693;28;20422;-69
2022/02/19 08:47:37;;;;;;;12.68;2.17;;;6.70;99.90;;;;;;5073345;28;20028;-69
2022/02/19 08:50:04;;;;;;;11.85;1.77;;;6.70;99.90;;;;;;5073846;28;20111;-69
2022/02/19 08:52:29;;;;;;;9.27;2.83;;;6.80;99.90;;;;;;5073210;28;20070;-67
2022/02/19 08:54:56;;;;;;;13.17;2.17;;;6.80;99.90;;;;;;5073398;28;20439;-67
2022/02/19 08:57:21;;;;;;;13.35;1.67;;;6.90;99.90;;;;;;5072011;28;20028;-67
2022/02/19 08:59:47;;;;;;;6.20;1.60;;;6.90;99.90;;;;;;5073427;28;20073;-66
2022/02/19 09:02:12;;;;;;;7.15;1.23;;;6.90;99.90;;;;;;5071872;28;20546;-66
2022/02/19 09:04:38;;;;;;;9.00;1.40;;;6.90;99.90;;;;;;5071758;28;20029;-66
2022/02/19 09:07:04;;;;;;;9.80;2.40;;;6.90;99.90;;;;;;5073542;28;20040;-67
2022/02/19 09:09:32;;;;;;;15.13;2.15;;;6.90;99.90;;;;;;5073303;28;20258;-66
2022/02/19 09:11:58;;;;;;;11.55;1.60;;;6.90;99.90;;;;;;5073172;28;20017;-67
2022/02/19 09:14:24;;;;;;;14.40;1.48;;;7.00;99.90;;;;;;5073909;28;20099;-66
2022/02/19 09:16:50;;;;;;;7.80;1.57;;;7.00;99.90;;;;;;5071755;28;20032;-66
2022/02/19 09:19:16;;;;;;;15.40;1.90;;;7.10;99.90;;;;;;5072935;28;20373;-64
2022/02/19 09:21:43;;;;;;;8.73;1.70;;;7.20;99.90;;;;;;5071649;28;20028;-66
2022/02/19 09:24:09;;;;;;;11.38;1.95;;;7.20;99.90;;;;;;5071794;28;20036;-67
2022/02/19 09:26:35;;;;;;;16.85;2.25;;;7.30;99.90;;;;;;5071953;28;20393;-70
2022/02/19 09:29:02;;;;;;;10.32;2.25;;;7.30;99.90;;;;;;5072524;28;20025;-70
2022/02/19 09:31:27;;;;;;;12.73;1.90;;;7.30;99.90;;;;;;5073468;28;20024;-72
2022/02/19 09:33:54;;;;;;;8.00;1.87;;;7.40;99.90;;;;;;5076255;28;20099;-70
2022/02/19 09:36:19;;;;;;;6.15;1.30;;;7.70;99.90;;;;;;5076107;28;20032;-71
2022/02/19 09:38:47;;;;;;;15.57;2.65;;;8.90;98.60;;;;;;5072131;28;20025;-70
2022/02/19 09:41:13;;;;;;;8.52;1.40;;;10.10;95.50;;;;;;5077693;28;20481;-71
2022/02/19 09:43:41;;;;;;;14.90;1.92;;;10.70;93.90;;;;;;5076989;28;20025;-71
2022/02/19 09:46:07;;;;;;;10.88;1.80;;;11.50;92.00;;;;;;5077048;28;20387;-66
2022/02/19 09:48:34;;;;;;;7.45;1.60;;;11.20;91.10;;;;;;5075613;28;20477;-66
2022/02/19 09:51:01;;;;;;;9.75;1.90;;;11.20;91.50;;;;;;5076824;28;20024;-66
2022/02/19 09:53:28;;;;;;;10.75;1.98;;;11.00;91.50;;;;;;5075427;28;20021;-69
2022/02/19 09:55:55;;;;;;;9.93;1.77;;;11.80;90.70;;;;;;5076786;28;20024;-67
2022/02/19 09:58:22;;;;;;;8.82;2.55;;;13.00;86.20;;;;;;5075253;28;20223;-68
2022/02/19 10:00:49;;;;;;;10.00;2.65;;;13.70;81.80;;;;;;5075400;28;20028;-70
2022/02/19 10:03:20;;;;;;;10.02;2.55;;;14.40;78.20;;;;;;5075246;28;20029;-69
2022/02/19 10:05:46;;;;;;;6.50;1.63;;;14.30;76.10;;;;;;5075079;28;20036;-67
2022/02/19 10:08:11;;;;;;;6.30;1.63;;;14.10;76.50;;;;;;5076656;28;20078;-68
2022/02/19 10:10:40;;;;;;;9.75;1.90;;;14.80;74.70;;;;;;5076473;28;20389;-68
2022/02/19 10:13:06;;;;;;;6.95;1.48;;;15.00;73.20;;;;;;5076493;28;20049;-67
2022/02/19 10:15:49;;;;;;;8.30;1.50;;;15.20;72.30;;;;;;5075415;28;20060;-68
2022/02/19 10:18:44;;;;;;;6.90;2.05;;;14.60;73.20;;;;;;5076723;28;20036;-67
2022/02/19 10:21:18;;;;;;;7.88;1.70;;;14.20;74.40;;;;;;5074778;28;20037;-68
2022/02/19 10:23:46;;;;;;;8.77;2.30;;;14.80;72.10;;;;;;5076117;28;20052;-67
2022/02/19 10:26:13;;;;;;;9.43;2.10;;;14.70;70.30;;;;;;5074617;28;20454;-67
2022/02/19 10:28:39;;;;;;;11.18;2.03;;;13.60;72.00;;;;;;5076000;28;20021;-67
2022/02/19 10:31:16;;;;;;;12.13;1.85;;;12.70;75.00;;;;;;5075964;28;20079;-66
2022/02/19 10:33:42;;;;;;;;;;;12.50;76.40;;;;;;5074749;28;20032;-68
2022/02/19 10:36:16;;;;;;;6.95;1.48;;;11.90;78.00;;;;;;5074606;28;19904;-67
2022/02/19 10:38:56;;;;;;;10.15;1.85;;;12.30;77.90;;;;;;5076048;28;20460;-68
2022/02/19 10:41:33;;;;;;;10.23;2.17;;;11.60;78.50;;;;;;5075801;28;20089;-67
2022/02/19 10:43:59;;;;;;;;;;;11.30;80.20;;;;;;5074744;28;20031;-66
2022/02/19 10:46:27;;;;;;;11.27;1.85;;;11.10;80.60;;;;;;5074388;28;19948;-67
2022/02/19 10:48:52;;;;;;;8.00;1.63;;;10.70;81.80;;;;;;5075810;28;20036;-67
2022/02/19 10:51:19;;;;;;;5.97;1.80;;;10.80;83.20;;;;;;5074850;28;20016;-67
2022/02/19 10:53:58;;;;;;;;;;;10.80;82.90;;;;;;5076092;28;20432;-67
2022/02/19 10:56:25;;;;;;;11.05;1.50;;;10.30;85.40;;;;;;5076327;28;19908;-67
2022/02/19 10:59:04;;;;;;;10.00;1.60;;;11.30;83.70;;;;;;5074385;28;20044;-67
2022/02/19 11:01:39;;;;;;;8.75;1.58;;;11.30;82.50;;;;;;5074668;28;20033;-68
2022/02/19 11:04:11;;;;;;;11.13;2.03;;;10.40;84.20;;;;;;5074977;28;20381;-67
2022/02/19 11:06:37;;;;;;;8.57;1.50;;;10.00;85.90;;;;;;5075686;28;20426;-67
2022/02/19 11:09:07;;;;;;;8.13;1.67;;;9.60;87.10;;;;;;5075671;28;20058;-67
2022/02/19 11:11:41;;;;;;;8.07;2.28;;;9.70;87.40;;;;;;5075942;28;20487;-67
2022/02/19 11:14:09;;;;;;;9.50;1.73;;;10.60;86.00;;;;;;5075659;28;20074;-68
2022/02/19 11:16:35;;;;;;;8.43;1.90;;;11.20;83.00;;;;;;5075216;28;20477;-68
2022/02/19 11:19:02;;;;;;;;;;;11.20;83.80;;;;;;5075671;28;20028;-67
2022/02/19 11:21:29;;;;;;;7.60;2.08;;;11.10;83.00;;;;;;5075662;28;19939;-67
2022/02/19 11:23:59;;;;;;;6.15;1.50;;;11.00;82.60;;;;;;5075999;28;20037;-67
2022/02/19 11:26:25;;;;;;;7.10;1.50;;;10.80;82.60;;;;;;5075669;28;20120;-67
2022/02/19 11:29:00;;;;;;;9.97;1.73;;;10.50;83.50;;;;;;5074382;28;20031;-67
2022/02/19 11:31:29;;;;;;;11.00;2.33;;;10.30;83.70;;;;;;5074794;28;20095;-67
2022/02/19 11:33:59;;;;;;;6.80;1.50;;;10.10;85.00;;;;;;5074738;28;20041;-68
2022/02/19 11:36:28;;;;;;;5.88;1.63;;;9.90;85.30;;;;;;5075427;28;20020;-67
2022/02/19 11:38:55;;;;;;;7.63;1.85;;;9.80;85.90;;;;;;5074885;28;20021;-67
2022/02/19 11:41:32;;;;;;;;;;;9.70;86.90;;;;;;5075152;28;20050;-67
2022/02/19 11:43:57;;;;;;;6.97;1.60;;;9.60;86.70;;;;;;5074351;28;19911;-67
2022/02/19 11:46:23;;;;;;;9.77;1.97;;;9.50;87.30;;;;;;5074666;28;20358;-66
2022/02/19 11:48:50;;;;;;;7.03;1.40;;;9.60;87.90;;;;;;5075320;28;20032;-67
2022/02/19 11:51:26;;;;;;;12.95;2.03;;;9.60;87.10;;;;;;5074444;28;20044;-67
2022/02/19 11:53:52;;;;;;;8.60;1.67;;;9.50;85.10;;;;;;5074399;28;20392;-70
2022/02/19 11:56:48;;;;;;;;;;;9.50;84.80;;;;;;5077331;28;20095;-72
2022/02/19 11:59:16;;;;;;;7.70;1.58;;;9.60;84.70;;;;;;5066114;28;19958;-71
2022/02/19 12:01:45;;;;;;;5.55;1.33;;;9.60;84.50;;;;;;5075327;28;20032;-72
2022/02/19 12:04:13;;;;;;;7.35;1.40;;;9.60;85.70;;;;;;5075224;28;20018;-67
2022/02/19 12:07:05;;;;;;;6.07;2.25;;;9.60;85.20;;;;;;5074775;28;20016;-67
2022/02/19 12:09:31;;;;;;;7.85;1.52;;;9.50;85.50;;;;;;5072283;28;20033;-67
2022/02/19 12:12:05;;;;;;;11.65;1.30;;;9.50;87.10;;;;;;5072940;28;20069;-67
2022/02/19 12:14:42;;;;;;;9.18;1.83;;;9.50;87.90;;;;;;5074169;28;20036;-68
2022/02/19 12:17:16;;;;;;;6.30;1.80;;;9.60;88.00;;;;;;5074416;28;20028;-68
2022/02/19 12:19:59;;;;;;;6.22;1.38;;;9.60;86.70;;;;;;5074665;28;20017;-68
2022/02/19 12:22:31;;;;;;;6.03;1.35;;;9.70;83.20;;;;;;5074391;28;20037;-69
2022/02/19 12:24:57;;;;;;;4.55;1.50;;;9.60;82.40;;;;;;5072904;28;20477;-67
2022/02/19 12:27:23;;;;;;;6.03;1.70;;;9.60;83.60;;;;;;5074059;28;20012;-68
2022/02/19 12:29:51;;;;;;;5.35;1.42;;;9.60;84.40;;;;;;5073585;28;20086;-68
2022/02/19 12:32:19;;;;;;;5.65;1.77;;;9.70;81.60;;;;;;5074023;28;20021;-68
2022/02/19 12:34:53;;;;;;;7.20;1.60;;;9.70;82.20;;;;;;5072468;28;20062;-68
2022/02/19 12:37:21;;;;;;;7.22;1.75;;;9.80;82.50;;;;;;5072545;28;20028;-68
2022/02/19 12:39:55;;;;;;;5.47;1.20;;;9.80;81.30;;;;;;5072584;28;20078;-70
2022/02/19 12:42:26;;;;;;;7.43;1.38;;;9.80;82.00;;;;;;5073697;28;20639;-70
2022/02/19 12:44:59;;;;;;;4.95;1.35;;;9.70;81.90;;;;;;5073476;28;20056;-70
2022/02/19 12:47:26;;;;;;;6.30;2.30;;;9.70;82.80;;;;;;5073639;28;20097;-69
2022/02/19 12:49:52;;;;;;;6.72;1.70;;;9.70;84.40;;;;;;5073488;28;20035;-68
2022/02/19 12:52:22;;;;;;;5.32;1.50;;;9.60;84.90;;;;;;5073661;28;20488;-69
2022/02/19 12:54:48;;;;;;;11.10;1.92;;;9.60;85.40;;;;;;5073535;28;20039;-67
2022/02/19 12:57:20;;;;;;;5.72;1.70;;;9.60;85.70;;;;;;5072964;28;20029;-68
2022/02/19 12:59:48;;;;;;;4.30;1.80;;;9.70;83.90;;;;;;5072650;28;20043;-68
2022/02/19 13:02:18;;;;;;;6.00;1.65;;;9.60;82.30;;;;;;5073124;28;20034;-67